createdAt,value
2023-01-15T00:00:23.147Z,8.97
2023-01-15T00:01:23.241Z,8.94
2023-01-15T00:02:23.191Z,8.99
2023-01-15T00:03:23.166Z,8.89
2023-01-15T00:04:23.135Z,8.95
2023-01-15T00:05:23.139Z,8.91
2023-01-15T00:06:23.161Z,9.03
2023-01-15T00:07:23.132Z,8.97
2023-01-15T00:08:23.154Z,8.91
2023-01-15T00:09:23.095Z,8.94
2023-01-15T00:10:23.100Z,8.92
2023-01-15T00:11:23.109Z,8.99
2023-01-15T00:12:23.121Z,8.99
2023-01-15T00:13:23.135Z,8.94
2023-01-15T00:14:23.096Z,8.97
2023-01-15T00:15:23.098Z,8.94
2023-01-15T00:16:23.059Z,8.95
2023-01-15T00:17:23.050Z,9.00
2023-01-15T00:18:23.035Z,8.94
2023-01-15T00:19:23.125Z,8.95
2023-01-15T00:20:23.034Z,9.04
2023-01-15T00:21:23.031Z,9.06
2023-01-15T00:22:23.033Z,8.99
2023-01-15T00:23:23.015Z,9.06
2023-01-15T00:24:23.003Z,8.99
2023-01-15T00:25:23.022Z,9.00
2023-01-15T00:26:23.009Z,8.99
2023-01-15T00:27:22.997Z,9.00
2023-01-15T00:28:23.001Z,9.03
2023-01-15T00:29:23.012Z,9.00
2023-01-15T00:30:22.967Z,8.94
2023-01-15T00:31:23.057Z,9.04
2023-01-15T00:32:22.969Z,9.08
2023-01-15T00:33:22.994Z,9.16
2023-01-15T00:34:22.953Z,9.10
2023-01-15T00:35:22.953Z,9.02
2023-01-15T00:36:22.966Z,9.11
2023-01-15T00:37:22.937Z,9.11
2023-01-15T00:38:22.919Z,9.10
2023-01-15T00:39:22.926Z,9.19
2023-01-15T00:40:22.946Z,9.06
2023-01-15T00:41:22.937Z,9.11
2023-01-15T00:42:22.915Z,9.10
2023-01-15T00:43:22.900Z,9.14
2023-01-15T00:44:22.891Z,9.11
2023-01-15T00:45:22.907Z,9.11
2023-01-15T00:46:22.957Z,9.13
2023-01-15T00:47:22.906Z,9.10
2023-01-15T00:48:22.863Z,9.16
2023-01-15T00:49:22.867Z,9.21
2023-01-15T00:50:22.856Z,9.22
2023-01-15T00:51:22.838Z,9.23
2023-01-15T00:52:22.830Z,9.25
2023-01-15T00:53:22.871Z,9.14
2023-01-15T00:54:22.842Z,9.25
2023-01-15T00:55:22.809Z,9.22
2023-01-15T00:56:22.805Z,9.26
2023-01-15T00:57:22.805Z,9.23
2023-01-15T00:58:22.799Z,9.16
2023-01-15T00:59:22.795Z,9.19
2023-01-15T01:00:22.790Z,9.23
2023-01-15T01:01:22.949Z,9.22
2023-01-15T01:02:22.863Z,9.23
2023-01-15T01:03:22.801Z,9.23
2023-01-15T01:04:22.783Z,9.25
2023-01-15T01:05:22.780Z,9.21
2023-01-15T01:06:22.763Z,9.22
2023-01-15T01:07:22.751Z,9.28
2023-01-15T01:08:22.742Z,9.21
2023-01-15T01:09:22.802Z,9.26
2023-01-15T01:10:22.859Z,9.29
2023-01-15T01:11:22.718Z,9.26
2023-01-15T01:12:22.712Z,9.28
2023-01-15T01:13:22.739Z,9.25
2023-01-15T01:14:22.714Z,9.22
2023-01-15T01:15:22.730Z,9.26
2023-01-15T01:16:22.784Z,9.26
2023-01-15T01:17:22.697Z,9.32
2023-01-15T01:18:22.688Z,9.34
2023-01-15T01:19:22.669Z,9.26
2023-01-15T01:20:22.670Z,9.36
2023-01-15T01:21:22.665Z,9.26
2023-01-15T01:22:22.672Z,9.37
2023-01-15T01:23:22.657Z,9.36
2023-01-15T01:24:22.647Z,9.34
2023-01-15T01:25:22.651Z,9.34
2023-01-15T01:26:22.650Z,9.31
2023-01-15T01:27:22.620Z,9.37
2023-01-15T01:28:22.666Z,9.37
2023-01-15T01:29:22.633Z,9.31
2023-01-15T01:30:22.649Z,9.37
2023-01-15T01:31:22.775Z,9.39
2023-01-15T01:32:22.638Z,9.36
2023-01-15T01:33:22.657Z,9.41
2023-01-15T01:34:22.605Z,9.41
2023-01-15T01:35:22.576Z,9.40
2023-01-15T01:36:22.629Z,9.41
2023-01-15T01:37:22.568Z,9.44
2023-01-15T01:38:22.569Z,9.44
2023-01-15T01:39:22.567Z,9.41
2023-01-15T01:40:22.573Z,9.48
2023-01-15T01:41:22.549Z,9.51
2023-01-15T01:42:22.538Z,9.51
2023-01-15T01:43:22.540Z,9.50
2023-01-15T01:44:22.535Z,9.44
2023-01-15T01:45:22.574Z,9.47
2023-01-15T01:46:22.517Z,9.50
2023-01-15T01:47:22.543Z,9.54
2023-01-15T01:48:22.501Z,9.50
2023-01-15T01:49:22.503Z,9.51
2023-01-15T01:50:22.511Z,9.54
2023-01-15T01:51:22.489Z,9.54
2023-01-15T01:52:22.484Z,9.54
2023-01-15T01:53:22.472Z,9.54
2023-01-15T01:54:22.481Z,9.61
2023-01-15T01:55:22.459Z,9.51
2023-01-15T01:56:22.475Z,9.46
2023-01-15T01:57:22.476Z,9.54
2023-01-15T01:58:22.454Z,9.54
2023-01-15T01:59:22.446Z,9.58
2023-01-15T02:00:22.445Z,9.54
2023-01-15T02:01:22.503Z,9.51
2023-01-15T02:02:22.507Z,9.62
2023-01-15T02:03:22.414Z,9.50
2023-01-15T02:04:22.405Z,9.51
2023-01-15T02:05:22.425Z,9.51
2023-01-15T02:06:22.404Z,9.50
2023-01-15T02:07:22.388Z,9.54
2023-01-15T02:08:22.383Z,9.44
2023-01-15T02:09:22.391Z,9.54
2023-01-15T02:10:22.385Z,9.54
2023-01-15T02:11:22.457Z,9.46
2023-01-15T02:12:22.369Z,9.43
2023-01-15T02:13:22.394Z,9.48
2023-01-15T02:14:22.358Z,9.46
2023-01-15T02:15:22.353Z,9.51
2023-01-15T02:16:22.347Z,9.50
2023-01-15T02:17:22.350Z,9.47
2023-01-15T02:18:22.331Z,9.44
2023-01-15T02:19:22.320Z,9.50
2023-01-15T02:20:22.330Z,9.50
2023-01-15T02:21:22.319Z,9.43
2023-01-15T02:22:22.308Z,9.41
2023-01-15T02:23:22.304Z,9.37
2023-01-15T02:24:22.290Z,9.51
2023-01-15T02:25:22.288Z,9.43
2023-01-15T02:26:22.286Z,9.36
2023-01-15T02:27:22.279Z,9.43
2023-01-15T02:28:22.263Z,9.37
2023-01-15T02:29:22.264Z,9.41
2023-01-15T02:30:22.288Z,9.37
2023-01-15T02:31:22.425Z,9.40
2023-01-15T02:32:22.245Z,9.36
2023-01-15T02:33:22.234Z,9.40
2023-01-15T02:34:22.259Z,9.39
2023-01-15T02:35:22.216Z,9.29
2023-01-15T02:36:22.238Z,9.28
2023-01-15T02:37:22.215Z,9.31
2023-01-15T02:38:22.206Z,9.31
2023-01-15T02:39:22.202Z,9.28
2023-01-15T02:40:22.205Z,9.28
2023-01-15T02:41:22.188Z,9.29
2023-01-15T02:42:22.191Z,9.29
2023-01-15T02:43:22.184Z,9.31
2023-01-15T02:44:22.192Z,9.31
2023-01-15T02:45:22.192Z,9.26
2023-01-15T02:46:22.173Z,9.31
2023-01-15T02:47:22.172Z,9.31
2023-01-15T02:48:22.151Z,9.32
2023-01-15T02:49:22.151Z,9.26
2023-01-15T02:50:22.140Z,9.22
2023-01-15T02:51:22.134Z,9.22
2023-01-15T02:52:22.137Z,9.28
2023-01-15T02:53:22.122Z,9.23
2023-01-15T02:54:22.119Z,9.26
2023-01-15T02:55:22.116Z,9.32
2023-01-15T02:56:22.098Z,9.25
2023-01-15T02:57:22.088Z,9.19
2023-01-15T02:58:22.096Z,9.25
2023-01-15T02:59:22.101Z,9.26
2023-01-15T03:00:22.082Z,9.25
2023-01-15T03:01:22.206Z,9.23
2023-01-15T03:02:22.113Z,9.26
2023-01-15T03:03:22.107Z,9.26
2023-01-15T03:04:22.058Z,9.31
2023-01-15T03:05:22.047Z,9.26
2023-01-15T03:06:22.063Z,9.19
2023-01-15T03:07:22.051Z,9.29
2023-01-15T03:08:22.034Z,9.31
2023-01-15T03:09:22.033Z,9.28
2023-01-15T03:10:22.038Z,9.26
2023-01-15T03:11:22.021Z,9.29
2023-01-15T03:12:22.014Z,9.32
2023-01-15T03:13:22.010Z,9.32
2023-01-15T03:14:21.996Z,9.28
2023-01-15T03:15:21.988Z,9.31
2023-01-15T03:16:22.172Z,9.29
2023-01-15T03:17:21.977Z,9.31
2023-01-15T03:18:21.970Z,9.32
2023-01-15T03:19:21.972Z,9.36
2023-01-15T03:20:21.981Z,9.34
2023-01-15T03:21:21.982Z,9.36
2023-01-15T03:22:21.973Z,9.34
2023-01-15T03:23:21.958Z,9.36
2023-01-15T03:24:21.950Z,9.31
2023-01-15T03:25:21.963Z,9.32
2023-01-15T03:26:21.931Z,9.31
2023-01-15T03:27:21.911Z,9.37
2023-01-15T03:28:21.930Z,9.39
2023-01-15T03:29:21.950Z,9.34
2023-01-15T03:30:21.918Z,9.34
2023-01-15T03:31:21.925Z,9.37
2023-01-15T03:32:21.918Z,9.36
2023-01-15T03:33:21.899Z,9.36
2023-01-15T03:34:21.901Z,9.34
2023-01-15T03:35:21.870Z,9.31
2023-01-15T03:36:21.912Z,9.28
2023-01-15T03:37:21.880Z,9.31
2023-01-15T03:38:21.881Z,9.31
2023-01-15T03:39:21.857Z,9.28
2023-01-15T03:40:21.858Z,9.34
2023-01-15T03:41:21.838Z,9.28
2023-01-15T03:42:21.835Z,9.31
2023-01-15T03:43:21.850Z,9.29
2023-01-15T03:44:21.829Z,9.29
2023-01-15T03:45:21.822Z,9.28
2023-01-15T03:46:21.847Z,9.32
2023-01-15T03:47:21.802Z,9.31
2023-01-15T03:48:21.838Z,9.37
2023-01-15T03:49:21.829Z,9.36
2023-01-15T03:50:21.778Z,9.31
2023-01-15T03:51:21.810Z,9.36
2023-01-15T03:52:21.784Z,9.40
2023-01-15T03:53:21.784Z,9.43
2023-01-15T03:54:21.815Z,9.37
2023-01-15T03:55:21.754Z,9.36
2023-01-15T03:56:21.748Z,9.39
2023-01-15T03:57:21.741Z,9.41
2023-01-15T03:58:21.741Z,9.46
2023-01-15T03:59:21.732Z,9.50
2023-01-15T04:00:21.767Z,9.50
2023-01-15T04:01:21.840Z,9.46
2023-01-15T04:02:21.754Z,9.50
2023-01-15T04:03:21.709Z,9.47
2023-01-15T04:04:21.733Z,9.40
2023-01-15T04:05:21.702Z,9.36
2023-01-15T04:06:21.699Z,9.39
2023-01-15T04:07:21.691Z,9.41
2023-01-15T04:08:21.709Z,9.39
2023-01-15T04:09:21.679Z,9.34
2023-01-15T04:10:21.667Z,9.36
2023-01-15T04:11:21.675Z,9.39
2023-01-15T04:12:21.652Z,9.36
2023-01-15T04:13:21.663Z,9.36
2023-01-15T04:14:21.655Z,9.36
2023-01-15T04:15:21.707Z,9.36
2023-01-15T04:16:21.648Z,9.36
2023-01-15T04:17:21.641Z,9.26
2023-01-15T04:18:21.654Z,9.25
2023-01-15T04:19:21.612Z,9.22
2023-01-15T04:20:21.612Z,9.23
2023-01-15T04:21:21.612Z,9.10
2023-01-15T04:22:21.607Z,9.08
2023-01-15T04:23:21.601Z,8.97
2023-01-15T04:24:21.597Z,9.00
2023-01-15T04:25:21.597Z,8.97
2023-01-15T04:26:21.614Z,8.95
2023-01-15T04:27:21.570Z,8.97
2023-01-15T04:28:21.574Z,8.91
2023-01-15T04:29:21.567Z,8.84
2023-01-15T04:30:21.558Z,8.76
2023-01-15T04:31:21.645Z,8.78
2023-01-15T04:32:21.547Z,8.78
2023-01-15T04:33:21.548Z,8.76
2023-01-15T04:34:21.534Z,8.78
2023-01-15T04:35:21.530Z,8.70
2023-01-15T04:36:21.517Z,8.76
2023-01-15T04:37:21.526Z,8.73
2023-01-15T04:38:21.501Z,8.70
2023-01-15T04:39:21.516Z,8.67
2023-01-15T04:40:21.497Z,8.67
2023-01-15T04:41:21.499Z,8.67
2023-01-15T04:42:21.482Z,8.67
2023-01-15T04:43:21.481Z,8.61
2023-01-15T04:44:21.483Z,8.64
2023-01-15T04:45:21.465Z,8.73
2023-01-15T04:46:21.473Z,8.64
2023-01-15T04:47:21.450Z,8.66
2023-01-15T04:48:21.467Z,8.67
2023-01-15T04:49:21.440Z,8.64
2023-01-15T04:50:21.464Z,8.70
2023-01-15T04:51:21.436Z,8.63
2023-01-15T04:52:21.425Z,8.66
2023-01-15T04:53:21.434Z,8.66
2023-01-15T04:54:21.421Z,8.63
2023-01-15T04:55:21.408Z,8.64
2023-01-15T04:56:21.463Z,8.58
2023-01-15T04:57:21.389Z,8.60
2023-01-15T04:58:21.396Z,8.52
2023-01-15T04:59:21.384Z,8.64
2023-01-15T05:00:21.397Z,8.52
2023-01-15T05:01:21.434Z,8.51
2023-01-15T05:02:21.530Z,8.55
2023-01-15T05:03:21.353Z,8.53
2023-01-15T05:04:21.389Z,8.55
2023-01-15T05:05:21.344Z,8.51
2023-01-15T05:06:21.337Z,8.46
2023-01-15T05:07:21.333Z,8.42
2023-01-15T05:08:21.340Z,8.34
2023-01-15T05:09:21.324Z,8.33
2023-01-15T05:10:21.307Z,8.33
2023-01-15T05:11:21.375Z,8.27
2023-01-15T05:12:21.312Z,8.27
2023-01-15T05:13:21.303Z,8.24
2023-01-15T05:14:21.280Z,8.28
2023-01-15T05:15:21.280Z,8.24
2023-01-15T05:16:21.273Z,8.24
2023-01-15T05:17:21.275Z,8.18
2023-01-15T05:18:21.260Z,8.27
2023-01-15T05:19:21.270Z,8.26
2023-01-15T05:20:21.277Z,8.19
2023-01-15T05:21:21.267Z,8.24
2023-01-15T05:22:21.240Z,8.24
2023-01-15T05:23:21.232Z,8.24
2023-01-15T05:24:21.241Z,8.24
2023-01-15T05:25:21.216Z,8.18
2023-01-15T05:26:21.265Z,8.26
2023-01-15T05:27:21.216Z,8.24
2023-01-15T05:28:21.198Z,8.19
2023-01-15T05:29:21.199Z,8.20
2023-01-15T05:30:21.179Z,8.24
2023-01-15T05:31:21.216Z,8.23
2023-01-15T05:32:21.174Z,8.24
2023-01-15T05:33:21.173Z,8.23
2023-01-15T05:34:21.260Z,8.20
2023-01-15T05:35:21.163Z,8.20
2023-01-15T05:36:21.195Z,8.19
2023-01-15T05:37:21.149Z,8.16
2023-01-15T05:38:21.215Z,8.12
2023-01-15T05:39:21.130Z,8.12
2023-01-15T05:40:21.147Z,8.16
2023-01-15T05:41:21.134Z,8.03
2023-01-15T05:42:21.169Z,8.00
2023-01-15T05:43:21.126Z,8.03
2023-01-15T05:44:21.100Z,8.06
2023-01-15T05:45:21.154Z,8.01
2023-01-15T05:46:21.115Z,8.06
2023-01-15T05:47:21.092Z,8.03
2023-01-15T05:48:21.079Z,8.03
2023-01-15T05:49:21.081Z,8.09
2023-01-15T05:50:21.070Z,8.01
2023-01-15T05:51:21.113Z,8.12
2023-01-15T05:52:21.107Z,8.03
2023-01-15T05:53:21.046Z,8.05
2023-01-15T05:54:21.052Z,7.98
2023-01-15T05:55:21.035Z,8.12
2023-01-15T05:56:21.027Z,8.01
2023-01-15T05:57:21.045Z,7.98
2023-01-15T05:58:21.020Z,7.90
2023-01-15T05:59:21.021Z,7.93
2023-01-15T06:00:20.992Z,7.87
2023-01-15T06:01:21.170Z,7.82
2023-01-15T06:02:21.056Z,7.90
2023-01-15T06:03:21.058Z,7.90
2023-01-15T06:04:20.981Z,7.90
2023-01-15T06:05:21.020Z,7.88
2023-01-15T06:06:20.954Z,7.85
2023-01-15T06:07:20.972Z,7.83
2023-01-15T06:08:20.940Z,7.97
2023-01-15T06:09:20.944Z,7.87
2023-01-15T06:10:20.993Z,7.93
2023-01-15T06:11:20.966Z,7.93
2023-01-15T06:12:20.923Z,7.97
2023-01-15T06:13:28.226Z,7.98
2023-01-15T06:15:24.923Z,8.08
2023-01-15T06:16:24.886Z,8.03
2023-01-15T06:18:28.876Z,8.03
2023-01-15T06:19:28.867Z,8.03
2023-01-15T06:21:33.076Z,8.10
2023-01-15T06:22:32.855Z,7.93
2023-01-15T06:24:25.765Z,8.03
2023-01-15T06:25:25.788Z,8.09
2023-01-15T06:27:29.753Z,8.03
2023-01-15T06:28:29.720Z,8.03
2023-01-15T06:30:34.353Z,8.05
2023-01-15T06:31:33.950Z,7.94
2023-01-15T06:33:37.883Z,7.90
2023-01-15T06:34:37.878Z,8.03
2023-01-15T06:36:42.072Z,8.05
2023-01-15T06:37:41.890Z,7.90
2023-01-15T06:39:46.460Z,7.85
2023-01-15T06:40:46.267Z,7.88
2023-01-15T06:42:50.100Z,7.85
2023-01-15T06:43:50.054Z,7.82
2023-01-15T06:45:54.665Z,7.75
2023-01-15T06:46:54.370Z,7.76
2023-01-15T06:48:58.229Z,7.72
2023-01-15T06:49:58.232Z,7.76
2023-01-15T06:52:02.236Z,7.75
2023-01-15T06:53:02.199Z,7.80
2023-01-15T06:54:55.694Z,7.76
2023-01-15T06:55:55.318Z,7.70
2023-01-15T06:57:59.308Z,7.79
2023-01-15T06:58:59.259Z,7.73
2023-01-15T07:01:03.335Z,7.87
2023-01-15T07:02:03.274Z,7.72
2023-01-15T07:03:56.258Z,7.73
2023-01-15T07:04:56.156Z,7.75
2023-01-15T07:07:00.125Z,7.61
2023-01-15T07:08:00.131Z,7.63
2023-01-15T07:10:04.672Z,7.66
2023-01-15T07:11:04.606Z,7.63
2023-01-15T07:12:04.614Z,7.60
2023-01-15T07:13:04.592Z,7.56
2023-01-15T07:14:11.554Z,7.63
2023-01-15T07:15:04.570Z,7.58
2023-01-15T07:16:04.661Z,7.57
2023-01-15T07:17:04.580Z,7.63
2023-01-15T07:18:04.570Z,7.66
2023-01-15T07:19:19.066Z,7.57
2023-01-15T07:20:04.542Z,7.50
2023-01-15T07:21:07.075Z,7.54
2023-01-15T07:22:04.545Z,7.50
2023-01-15T07:23:11.085Z,7.57
2023-01-15T07:24:04.515Z,7.40
2023-01-15T07:25:04.508Z,7.38
2023-01-15T07:26:04.497Z,7.42
2023-01-15T07:27:04.491Z,7.40
2023-01-15T07:28:04.500Z,7.48
2023-01-15T07:29:04.478Z,7.40
2023-01-15T07:30:04.488Z,7.45
2023-01-15T07:31:04.477Z,7.43
2023-01-15T07:32:04.457Z,7.40
2023-01-15T07:33:04.454Z,7.40
2023-01-15T07:34:04.467Z,7.42
2023-01-15T07:35:04.453Z,7.36
2023-01-15T07:36:04.471Z,7.33
2023-01-15T07:37:04.432Z,7.25
2023-01-15T07:38:04.420Z,7.24
2023-01-15T07:39:04.402Z,7.17
2023-01-15T07:40:04.430Z,7.15
2023-01-15T07:41:04.390Z,7.20
2023-01-15T07:42:04.386Z,7.20
2023-01-15T07:43:04.386Z,7.20
2023-01-15T07:44:04.373Z,7.21
2023-01-15T07:45:04.369Z,7.18
2023-01-15T07:46:04.378Z,7.20
2023-01-15T07:47:04.352Z,7.17
2023-01-15T07:48:04.345Z,7.29
2023-01-15T07:49:07.063Z,7.23
2023-01-15T07:50:04.386Z,7.20
2023-01-15T07:51:04.320Z,7.17
2023-01-15T07:52:04.322Z,7.21
2023-01-15T07:53:04.323Z,7.15
2023-01-15T07:54:04.315Z,7.21
2023-01-15T07:55:04.296Z,7.15
2023-01-15T07:56:04.309Z,7.15
2023-01-15T07:57:04.292Z,7.21
2023-01-15T07:58:04.273Z,7.10
2023-01-15T07:59:04.262Z,7.18
2023-01-15T08:00:11.058Z,7.20
2023-01-15T08:01:04.348Z,7.18
2023-01-15T08:02:04.300Z,7.18
2023-01-15T08:03:04.235Z,7.24
2023-01-15T08:04:04.272Z,7.13
2023-01-15T08:05:19.100Z,7.18
2023-01-15T08:06:04.217Z,7.14
2023-01-15T08:07:04.211Z,7.14
2023-01-15T08:08:04.227Z,7.17
2023-01-15T08:09:04.188Z,7.05
2023-01-15T08:10:04.252Z,7.15
2023-01-15T08:11:04.181Z,7.13
2023-01-15T08:12:04.175Z,7.14
2023-01-15T08:13:04.181Z,7.14
2023-01-15T08:14:04.151Z,7.17
2023-01-15T08:15:04.148Z,7.14
2023-01-15T08:16:04.167Z,7.14
2023-01-15T08:17:04.143Z,7.17
2023-01-15T08:18:04.150Z,7.15
2023-01-15T08:19:04.151Z,7.14
2023-01-15T08:20:04.122Z,7.13
2023-01-15T08:21:04.132Z,7.18
2023-01-15T08:22:04.137Z,7.18
2023-01-15T08:23:04.091Z,7.18
2023-01-15T08:25:35.769Z,7.15
2023-01-15T08:26:35.721Z,7.17
2023-01-15T08:28:39.697Z,7.21
2023-01-15T08:29:39.686Z,7.17
2023-01-15T08:31:43.747Z,7.18
2023-01-15T08:32:43.667Z,7.21
2023-01-15T08:34:36.573Z,7.20
2023-01-15T08:35:36.596Z,7.20
2023-01-15T08:37:40.818Z,7.18
2023-01-15T08:38:40.535Z,7.23
2023-01-15T08:40:44.503Z,7.20
2023-01-15T08:41:44.507Z,7.20
2023-01-15T08:43:48.552Z,7.28
2023-01-15T08:44:48.474Z,7.18
2023-01-15T08:46:52.516Z,7.29
2023-01-15T08:47:52.459Z,7.32
2023-01-15T08:49:56.455Z,7.40
2023-01-15T08:50:56.437Z,7.38
2023-01-15T08:53:00.401Z,7.32
2023-01-15T08:54:00.405Z,7.38
2023-01-15T08:56:04.408Z,7.31
2023-01-15T08:57:04.371Z,7.39
2023-01-15T08:59:08.824Z,7.43
2023-01-15T09:00:08.327Z,7.43
2023-01-15T09:02:12.327Z,7.33
2023-01-15T09:03:12.284Z,7.36
2023-01-15T09:05:16.315Z,7.42
2023-01-15T09:06:16.274Z,7.31
2023-01-15T09:08:20.781Z,7.31
2023-01-15T09:09:20.734Z,7.29
2023-01-15T09:10:20.734Z,7.28
2023-01-15T09:11:20.728Z,7.23
2023-01-15T09:12:20.718Z,7.25
2023-01-15T09:13:20.702Z,7.25
2023-01-15T09:14:59.385Z,7.29
2023-01-15T09:15:20.688Z,7.28
2023-01-15T09:16:20.727Z,7.31
2023-01-15T09:17:20.694Z,7.29
2023-01-15T09:18:20.672Z,7.31
2023-01-15T09:19:20.677Z,7.33
2023-01-15T09:20:20.655Z,7.36
2023-01-15T09:21:20.649Z,7.35
2023-01-15T09:22:20.640Z,7.33
2023-01-15T09:23:20.660Z,7.36
2023-01-15T09:24:20.629Z,7.32
2023-01-15T09:25:20.622Z,7.32
2023-01-15T09:26:20.625Z,7.28
2023-01-15T09:27:20.622Z,7.25
2023-01-15T09:28:20.610Z,7.25
2023-01-15T09:29:20.604Z,7.29
2023-01-15T09:30:20.576Z,7.35
2023-01-15T09:31:20.573Z,7.31
2023-01-15T09:32:20.585Z,7.33
2023-01-15T09:33:20.594Z,7.31
2023-01-15T09:34:20.581Z,7.35
2023-01-15T09:35:20.554Z,7.32
2023-01-15T09:36:20.538Z,7.35
2023-01-15T09:37:20.539Z,7.32
2023-01-15T09:38:20.519Z,7.28
2023-01-15T09:39:20.533Z,7.25
2023-01-15T09:40:20.552Z,7.31
2023-01-15T09:41:20.503Z,7.25
2023-01-15T09:42:20.558Z,7.24
2023-01-15T09:43:20.508Z,7.38
2023-01-15T09:44:20.498Z,7.29
2023-01-15T09:45:20.502Z,7.39
2023-01-15T09:46:20.538Z,7.32
2023-01-15T09:47:20.461Z,7.36
2023-01-15T09:48:20.484Z,7.33
2023-01-15T09:49:20.468Z,7.33
2023-01-15T09:50:20.502Z,7.31
2023-01-15T09:51:20.531Z,7.35
2023-01-15T09:52:20.425Z,7.33
2023-01-15T09:53:20.425Z,7.35
2023-01-15T09:54:20.413Z,7.36
2023-01-15T09:55:20.425Z,7.33
2023-01-15T09:56:20.421Z,7.36
2023-01-15T09:57:20.387Z,7.32
2023-01-15T09:58:20.413Z,7.42
2023-01-15T09:59:20.403Z,7.40
2023-01-15T10:00:20.474Z,7.43
2023-01-15T10:01:20.410Z,7.43
2023-01-15T10:02:20.357Z,7.47
2023-01-15T10:03:20.389Z,7.40
2023-01-15T10:04:20.464Z,7.40
2023-01-15T10:05:20.352Z,7.45
2023-01-15T10:06:20.498Z,7.51
2023-01-15T10:07:20.355Z,7.56
2023-01-15T10:08:20.318Z,7.54
2023-01-15T10:09:20.310Z,7.51
2023-01-15T10:10:20.300Z,7.53
2023-01-15T10:11:20.300Z,7.56
2023-01-15T10:12:20.310Z,7.53
2023-01-15T10:13:20.299Z,7.60
2023-01-15T10:14:20.282Z,7.51
2023-01-15T10:15:20.281Z,7.51
2023-01-15T10:16:20.260Z,7.53
2023-01-15T10:17:20.262Z,7.53
2023-01-15T10:18:20.279Z,7.54
2023-01-15T10:19:20.254Z,7.66
2023-01-15T10:20:20.253Z,7.56
2023-01-15T10:21:20.237Z,7.61
2023-01-15T10:22:20.250Z,7.66
2023-01-15T10:23:20.223Z,7.60
2023-01-15T10:24:20.223Z,7.66
2023-01-15T10:25:20.225Z,7.66
2023-01-15T10:26:20.202Z,7.61
2023-01-15T10:27:20.195Z,7.58
2023-01-15T10:28:20.178Z,7.66
2023-01-15T10:29:20.187Z,7.58
2023-01-15T10:30:20.180Z,7.63
2023-01-15T10:31:20.224Z,7.66
2023-01-15T10:32:20.187Z,7.60
2023-01-15T10:33:20.151Z,7.63
2023-01-15T10:34:20.141Z,7.66
2023-01-15T10:35:20.131Z,7.61
2023-01-15T10:36:20.134Z,7.69
2023-01-15T10:37:20.124Z,7.63
2023-01-15T10:38:20.127Z,7.63
2023-01-15T10:39:21.345Z,7.61
2023-01-15T10:40:20.113Z,7.58
2023-01-15T10:41:20.104Z,7.60
2023-01-15T10:42:20.086Z,7.58
2023-01-15T10:43:20.093Z,7.58
2023-01-15T10:44:20.082Z,7.60
2023-01-15T10:45:20.088Z,7.69
2023-01-15T10:46:20.115Z,7.61
2023-01-15T10:47:20.058Z,7.60
2023-01-15T10:48:20.062Z,7.67
2023-01-15T10:49:20.042Z,7.60
2023-01-15T10:50:20.041Z,7.60
2023-01-15T10:51:20.035Z,7.60
2023-01-15T10:52:20.023Z,7.63
2023-01-15T10:53:20.013Z,7.61
2023-01-15T10:54:20.016Z,7.60
2023-01-15T10:55:20.046Z,7.66
2023-01-15T10:56:20.019Z,7.60
2023-01-15T10:57:19.978Z,7.63
2023-01-15T10:58:20.077Z,7.63
2023-01-15T10:59:19.982Z,7.63
2023-01-15T11:00:19.977Z,7.63
2023-01-15T11:01:20.137Z,7.61
2023-01-15T11:02:20.120Z,7.66
2023-01-15T11:03:19.949Z,7.60
2023-01-15T11:04:19.934Z,7.63
2023-01-15T11:05:19.928Z,7.72
2023-01-15T11:06:19.936Z,7.66
2023-01-15T11:07:19.930Z,7.76
2023-01-15T11:09:06.030Z,7.76
2023-01-15T11:09:19.913Z,7.77
2023-01-15T11:10:19.930Z,7.77
2023-01-15T11:11:19.916Z,7.73
2023-01-15T11:12:19.907Z,7.73
2023-01-15T11:13:19.899Z,7.75
2023-01-15T11:14:19.878Z,7.76
2023-01-15T11:15:19.885Z,7.73
2023-01-15T11:16:19.869Z,7.75
2023-01-15T11:17:19.857Z,7.73
2023-01-15T11:18:19.868Z,7.76
2023-01-15T11:19:21.033Z,7.73
2023-01-15T11:20:19.878Z,7.75
2023-01-15T11:21:19.881Z,7.77
2023-01-15T11:22:19.878Z,7.70
2023-01-15T11:23:19.844Z,7.77
2023-01-15T11:24:19.840Z,7.76
2023-01-15T11:25:19.820Z,7.85
2023-01-15T11:26:19.807Z,7.77
2023-01-15T11:27:19.822Z,7.83
2023-01-15T11:28:21.343Z,7.82
2023-01-15T11:29:19.808Z,7.76
2023-01-15T11:30:19.808Z,7.83
2023-01-15T11:31:19.824Z,7.70
2023-01-15T11:32:19.801Z,7.76
2023-01-15T11:33:19.885Z,7.76
2023-01-15T11:34:21.631Z,7.76
2023-01-15T11:35:19.742Z,7.90
2023-01-15T11:36:19.773Z,7.85
2023-01-15T11:37:19.763Z,7.76
2023-01-15T11:38:19.755Z,7.75
2023-01-15T11:39:19.774Z,7.79
2023-01-15T11:40:19.867Z,7.75
2023-01-15T11:41:19.745Z,7.69
2023-01-15T11:42:19.724Z,7.75
2023-01-15T11:43:19.727Z,7.76
2023-01-15T11:44:19.703Z,7.73
2023-01-15T11:45:19.698Z,7.77
2023-01-15T11:46:19.748Z,7.79
2023-01-15T11:47:19.672Z,7.85
2023-01-15T11:48:19.665Z,7.83
2023-01-15T11:49:19.653Z,7.76
2023-01-15T11:50:19.636Z,7.83
2023-01-15T11:51:19.645Z,7.85
2023-01-15T11:52:19.620Z,7.76
2023-01-15T11:53:19.621Z,7.82
2023-01-15T11:54:19.621Z,7.75
2023-01-15T11:55:19.607Z,7.82
2023-01-15T11:56:19.824Z,7.83
2023-01-15T11:57:19.609Z,7.90
2023-01-15T11:58:19.602Z,7.76
2023-01-15T11:59:19.583Z,7.82
2023-01-15T12:00:19.601Z,7.82
2023-01-15T12:01:19.636Z,7.76
2023-01-15T12:02:19.569Z,7.80
2023-01-15T12:03:19.615Z,7.77
2023-01-15T12:04:19.663Z,7.79
2023-01-15T12:05:19.571Z,7.90
2023-01-15T12:06:19.560Z,7.75
2023-01-15T12:07:19.607Z,7.83
2023-01-15T12:08:19.599Z,7.85
2023-01-15T12:09:19.532Z,7.77
2023-01-15T12:10:19.531Z,7.82
2023-01-15T12:11:26.827Z,7.83
2023-01-15T12:12:19.497Z,7.76
2023-01-15T12:13:19.501Z,7.87
2023-01-15T12:14:19.499Z,7.90
2023-01-15T12:15:19.511Z,7.88
2023-01-15T12:16:19.539Z,7.77
2023-01-15T12:17:19.474Z,7.80
2023-01-15T12:18:19.621Z,7.87
2023-01-15T12:19:19.556Z,7.91
2023-01-15T12:20:19.456Z,7.83
2023-01-15T12:21:19.447Z,7.97
2023-01-15T12:22:19.453Z,7.97
2023-01-15T12:23:19.455Z,8.01
2023-01-15T12:24:19.450Z,8.03
2023-01-15T12:25:19.426Z,8.01
2023-01-15T12:26:19.479Z,8.06
2023-01-15T12:27:19.404Z,8.01
2023-01-15T12:28:19.395Z,8.05
2023-01-15T12:29:19.407Z,8.08
2023-01-15T12:30:19.370Z,8.06
2023-01-15T12:31:19.427Z,8.00
2023-01-15T12:32:19.383Z,8.00
2023-01-15T12:33:19.386Z,8.10
2023-01-15T12:34:19.397Z,8.03
2023-01-15T12:35:19.387Z,7.94
2023-01-15T12:36:19.380Z,7.98
2023-01-15T12:37:19.336Z,7.94
2023-01-15T12:38:19.356Z,7.93
2023-01-15T12:39:19.326Z,7.94
2023-01-15T12:40:19.334Z,7.94
2023-01-15T12:41:19.328Z,7.88
2023-01-15T12:42:19.371Z,7.97
2023-01-15T12:43:19.355Z,7.88
2023-01-15T12:44:19.283Z,7.93
2023-01-15T12:45:19.285Z,7.90
2023-01-15T12:46:19.458Z,7.88
2023-01-15T12:47:19.285Z,7.93
2023-01-15T12:48:19.259Z,7.94
2023-01-15T12:49:19.253Z,7.97
2023-01-15T12:50:19.248Z,7.97
2023-01-15T12:51:19.274Z,7.90
2023-01-15T12:52:19.288Z,7.98
2023-01-15T12:53:19.272Z,7.98
2023-01-15T12:54:19.247Z,7.90
2023-01-15T12:55:19.273Z,7.91
2023-01-15T12:56:19.229Z,7.93
2023-01-15T12:57:19.210Z,7.80
2023-01-15T12:58:19.210Z,7.82
2023-01-15T12:59:19.181Z,7.83
2023-01-15T13:00:19.208Z,7.79
2023-01-15T13:01:19.816Z,7.80
2023-01-15T13:02:19.240Z,7.80
2023-01-15T13:03:19.192Z,7.79
2023-01-15T13:04:19.190Z,7.88
2023-01-15T13:05:19.152Z,7.90
2023-01-15T13:06:19.175Z,7.95
2023-01-15T13:07:19.140Z,7.79
2023-01-15T13:08:19.135Z,7.82
2023-01-15T13:09:19.109Z,7.82
2023-01-15T13:10:19.121Z,7.87
2023-01-15T13:11:19.135Z,7.91
2023-01-15T13:12:19.130Z,7.80
2023-01-15T13:13:19.111Z,7.90
2023-01-15T13:14:19.084Z,7.90
2023-01-15T13:15:19.104Z,7.88
2023-01-15T13:16:19.118Z,7.90
2023-01-15T13:17:19.098Z,7.87
2023-01-15T13:18:19.112Z,7.88
2023-01-15T13:19:19.041Z,7.91
2023-01-15T13:20:19.041Z,7.87
2023-01-15T13:21:19.072Z,7.91
2023-01-15T13:22:19.062Z,7.88
2023-01-15T13:23:19.062Z,7.85
2023-01-15T13:24:19.027Z,7.93
2023-01-15T13:25:19.038Z,7.90
2023-01-15T13:26:19.011Z,7.88
2023-01-15T13:27:19.037Z,7.91
2023-01-15T13:28:19.083Z,7.88
2023-01-15T13:29:19.036Z,7.87
2023-01-15T13:30:19.032Z,7.94
2023-01-15T13:31:19.058Z,7.88
2023-01-15T13:32:18.986Z,7.76
2023-01-15T13:33:18.967Z,7.79
2023-01-15T13:34:19.040Z,7.82
2023-01-15T13:35:18.947Z,7.82
2023-01-15T13:36:19.053Z,7.77
2023-01-15T13:37:18.941Z,7.80
2023-01-15T13:38:18.982Z,7.76
2023-01-15T13:39:19.026Z,7.80
2023-01-15T13:40:18.937Z,7.75
2023-01-15T13:41:18.921Z,7.75
2023-01-15T13:42:18.897Z,7.77
2023-01-15T13:43:18.987Z,7.75
2023-01-15T13:44:18.907Z,7.75
2023-01-15T13:45:18.874Z,7.76
2023-01-15T13:46:18.887Z,7.75
2023-01-15T13:47:18.871Z,7.76
2023-01-15T13:48:18.854Z,7.70
2023-01-15T13:49:18.865Z,7.69
2023-01-15T13:50:18.857Z,7.66
2023-01-15T13:51:18.848Z,7.63
2023-01-15T13:52:18.833Z,7.63
2023-01-15T13:53:19.014Z,7.67
2023-01-15T13:54:18.861Z,7.72